Time;durP1;ratioP1;P1;durP2;ratioP2;P2;SDS_P1;SDS_P2;PMS_P1;PMS_P2;Temp;Humidity;BMP_temperature;BMP_pressure;BME280_temperature;BME280_humidity;BME280_pressure;Samples;Min_cycle;Max_cycle;Signal;HPM_P1;HPM_P2
2024/01/06 00:00:35;;;;;;;;;;;;;;;;;;;;;
2024/01/06 00:03:05;;;;;;;5.75;1.80;;;;;;;9.38;99.93;101748.75;4964721;28;20050;-89
2024/01/06 00:05:34;;;;;;;6.18;2.03;;;;;;;9.37;99.16;101766.75;4966291;28;20070;-87
2024/01/06 00:08:03;;;;;;;7.78;1.73;;;;;;;9.37;99.45;101762.47;4982263;28;20070;-89
2024/01/06 00:10:46;;;;;;;2.30;1.15;;;;;;;9.37;99.62;101757.31;4971274;28;20073;-86
2024/01/06 00:13:15;;;;;;;6.50;1.52;;;;;;;9.35;99.36;101748.59;4971137;28;20051;-87
2024/01/06 00:15:44;;;;;;;5.38;1.38;;;;;;;9.37;100.00;101754.72;4970406;28;20101;-86
2024/01/06 00:18:21;;;;;;;4.90;0.95;;;;;;;9.37;99.09;101744.41;4973747;28;20113;-86
2024/01/06 00:20:50;;;;;;;3.47;1.27;;;;;;;9.29;98.24;101732.78;4973188;28;20493;-88
2024/01/06 00:23:19;;;;;;;6.57;1.83;;;;;;;9.30;97.90;101733.66;4972466;28;20051;-88
2024/01/06 00:25:54;;;;;;;5.80;1.08;;;;;;;9.28;98.61;101731.03;4973193;28;20051;-87
2024/01/06 00:28:23;;;;;;;6.10;1.05;;;;;;;9.26;98.12;101737.81;4974279;28;20055;-87
2024/01/06 00:30:52;;;;;;;9.05;1.35;;;;;;;9.24;98.79;101734.25;4974426;28;20067;-86
2024/01/06 00:33:20;;;;;;;12.70;1.67;;;;;;;9.27;98.82;101731.81;4976163;28;20138;-86
2024/01/06 00:35:59;;;;;;;;;;;;;;;;;;;;;
2024/01/06 00:38:28;;;;;;;5.40;1.08;;;;;;;9.21;100.00;101703.13;4968772;28;20047;-85
2024/01/06 00:40:59;;;;;;;3.35;1.05;;;;;;;9.18;99.85;101708.09;4977119;28;20051;-86
2024/01/06 00:43:30;;;;;;;4.97;1.25;;;;;;;9.18;99.42;101719.31;4979243;28;20081;-88
2024/01/06 00:46:00;;;;;;;4.95;0.95;;;;;;;9.20;99.73;101727.16;4984125;28;20134;-86
2024/01/06 00:48:30;;;;;;;14.05;1.42;;;;;;;9.16;99.38;101720.97;4972771;28;20053;-85
2024/01/06 00:51:10;;;;;;;3.85;1.15;;;;;;;9.16;100.00;101715.81;4978336;28;20063;-86
2024/01/06 00:53:43;;;;;;;6.50;1.10;;;;;;;9.12;100.00;101703.53;4969766;28;20046;-86
2024/01/06 00:56:14;;;;;;;3.03;1.25;;;;;;;9.12;100.00;101705.25;4974509;28;20086;-85
2024/01/06 00:58:42;;;;;;;4.63;0.80;;;;;;;9.15;100.00;101689.88;4971956;28;20060;-85
2024/01/06 01:01:11;;;;;;;2.88;0.52;;;;;;;9.11;100.00;101682.78;4973647;28;20057;-87
2024/01/06 01:03:40;;;;;;;6.90;0.80;;;;;;;9.07;100.00;101674.03;4968160;28;20074;-85
2024/01/06 01:06:09;;;;;;;4.22;0.95;;;;;;;9.11;100.00;101680.22;4978036;28;20047;-86
2024/01/06 01:08:38;;;;;;;7.50;1.10;;;;;;;9.07;100.00;101670.53;4968241;28;20067;-86
2024/01/06 01:11:08;;;;;;;3.03;0.80;;;;;;;9.03;100.00;101669.50;4974601;28;20055;-86
2024/01/06 01:13:39;;;;;;;3.97;0.70;;;;;;;9.10;100.00;101668.13;4969490;28;20039;-85
2024/01/06 01:16:11;;;;;;;1.35;0.50;;;;;;;9.11;100.00;101654.41;4972436;28;20062;-86
2024/01/06 01:18:40;;;;;;;4.00;0.57;;;;;;;9.13;100.00;101645.03;4972720;28;20086;-84
2024/01/06 01:21:09;;;;;;;9.18;1.23;;;;;;;9.11;100.00;101636.31;4977715;28;20058;-86
2024/01/06 01:23:37;;;;;;;2.75;0.80;;;;;;;9.10;100.00;101630.28;4986800;28;20058;-87
2024/01/06 01:26:07;;;;;;;7.97;0.90;;;;;;;9.06;100.00;101627.47;4969966;28;20143;-84
2024/01/06 01:28:37;;;;;;;6.78;1.15;;;;;;;9.10;100.00;101638.03;4977593;28;20050;-86
2024/01/06 01:31:06;;;;;;;2.78;0.63;;;;;;;9.11;100.00;101650.09;4983921;28;20489;-85
2024/01/06 01:33:35;;;;;;;4.65;1.10;;;;;;;9.12;100.00;101632.94;4976419;28;20059;-85
2024/01/06 01:36:05;;;;;;;3.72;1.15;;;;;;;9.06;99.77;101617.13;4978566;28;20047;-89
2024/01/06 01:38:39;;;;;;;5.05;1.75;;;;;;;9.02;99.96;101604.09;4969328;28;20138;-87
2024/01/06 01:41:08;;;;;;;4.60;1.17;;;;;;;8.98;100.00;101578.94;4967570;28;20422;-86
2024/01/06 01:43:40;;;;;;;3.13;1.23;;;;;;;8.92;100.00;101583.78;4966249;28;20058;-90
2024/01/06 01:46:16;;;;;;;1.20;0.47;;;;;;;8.85;100.00;101589.47;4969456;28;20051;-86
2024/01/06 01:48:45;;;;;;;5.55;1.17;;;;;;;8.86;100.00;101596.38;4966881;28;20054;-87
2024/01/06 01:51:14;;;;;;;8.88;1.20;;;;;;;8.86;100.00;101598.06;4972180;28;20138;-87
2024/01/06 01:53:44;;;;;;;7.15;1.15;;;;;;;8.84;100.00;101591.94;4969160;28;20059;-87
2024/01/06 01:56:20;;;;;;;3.08;1.30;;;;;;;8.80;100.00;101601.25;4973938;28;20047;-89
2024/01/06 01:58:51;;;;;;;5.80;1.20;;;;;;;8.72;100.00;101589.66;4978724;28;20062;-88
2024/01/06 02:01:21;;;;;;;6.28;1.08;;;;;;;8.69;100.00;101592.97;4980023;28;20063;-91
2024/01/06 02:04:00;;;;;;;6.18;1.20;;;;;;;8.67;100.00;101592.00;4983073;28;20093;-89
2024/01/06 02:19:57;;;;;;;;;;;;;;;;;;;;;
2024/01/06 02:22:28;;;;;;;9.73;1.85;;;;;;;8.56;100.00;101545.00;4950164;28;20051;-84
2024/01/06 02:24:57;;;;;;;6.38;1.38;;;;;;;8.54;100.00;101556.97;4950856;28;20102;-86
2024/01/06 02:27:27;;;;;;;9.02;1.80;;;;;;;8.56;100.00;101564.75;4952059;28;20142;-85
2024/01/06 02:29:58;;;;;;;5.22;1.02;;;;;;;8.53;100.00;101549.16;4954143;28;20051;-84
2024/01/06 02:32:28;;;;;;;7.03;1.20;;;;;;;8.50;100.00;101524.09;4952642;28;20584;-85
2024/01/06 02:34:57;;;;;;;3.03;1.23;;;;;;;8.48;100.00;101523.13;4955889;28;20047;-85
2024/01/06 02:37:28;;;;;;;4.30;0.70;;;;;;;8.47;100.00;101521.34;4958766;28;20065;-85
2024/01/06 02:40:00;;;;;;;5.10;1.25;;;;;;;8.47;100.00;101529.06;4952744;28;20053;-85
2024/01/06 02:42:29;;;;;;;2.83;0.90;;;;;;;8.48;100.00;101536.03;4956034;28;20043;-86
2024/01/06 02:44:59;;;;;;;7.45;0.98;;;;;;;8.42;100.00;101530.53;4951109;28;20054;-85
2024/01/06 02:47:28;;;;;;;4.07;1.20;;;;;;;8.38;100.00;101515.69;4950962;28;20063;-87
2024/01/06 02:50:03;;;;;;;4.57;1.00;;;;;;;8.39;100.00;101525.22;4951409;28;20505;-86
2024/01/06 03:27:25;;;;;;;1.27;0.32;;;;;;;7.85;100.00;101421.06;5494576;23;20085;-86
2024/01/06 03:29:54;;;;;;;;;;;;;;;7.87;100.00;101419.44;4974557;28;20069;-84
2024/01/06 03:32:24;;;;;;;4.05;1.13;;;;;;;7.88;100.00;101406.66;4971095;28;19968;-84
2024/01/06 03:34:59;;;;;;;4.57;0.45;;;;;;;7.80;100.00;101386.44;4976201;28;20141;-84
2024/01/06 03:37:29;;;;;;;4.20;1.08;;;;;;;7.84;100.00;101388.38;4974042;28;20062;-84
2024/01/06 03:39:58;;;;;;;7.43;1.25;;;;;;;7.81;100.00;101378.81;4974751;28;20073;-82
2024/01/06 03:42:46;;;;;;;3.38;0.75;;;;;;;7.73;100.00;101387.81;4970045;28;20061;-83
2024/01/06 03:45:15;;;;;;;1.38;0.63;;;;;;;7.70;100.00;101369.66;4980286;28;20109;-83
2024/01/06 03:47:44;;;;;;;6.05;0.63;;;;;;;7.73;100.00;101370.66;4970480;28;20136;-83
2024/01/06 03:50:16;;;;;;;2.60;0.77;;;;;;;7.73;100.00;101370.66;4985019;28;20104;-81
2024/01/06 03:52:46;;;;;;;2.60;0.82;;;;;;;7.67;100.00;101354.94;4980424;28;20066;-88
2024/01/06 03:55:15;;;;;;;0.32;0.32;;;;;;;7.72;100.00;101356.03;4973359;28;20059;-85
2024/01/06 03:57:49;;;;;;;0.63;0.30;;;;;;;7.75;100.00;101351.03;4972151;28;20062;-85
2024/01/06 04:00:21;;;;;;;1.77;0.70;;;;;;;7.75;100.00;101335.56;4974407;28;20123;-87
2024/01/06 04:02:50;;;;;;;1.23;0.60;;;;;;;7.80;100.00;101322.03;4971985;28;20082;-86
2024/01/06 04:05:23;;;;;;;1.75;0.38;;;;;;;7.78;100.00;101300.47;4973774;28;20054;-90
2024/01/06 04:31:24;;;;;;;5.30;0.75;;;;;;;7.52;100.00;101220.22;4973401;28;20069;-87
2024/01/06 04:33:59;;;;;;;2.00;0.65;;;;;;;7.48;100.00;101197.72;4977085;28;20059;-87
2024/01/06 04:36:32;;;;;;;2.40;0.50;;;;;;;7.44;100.00;101185.50;4968287;28;20500;-90
2024/01/06 04:44:05;;;;;;;1.45;0.65;;;;;;;7.25;100.00;101156.28;5681755;23;20109;-87
2024/01/06 04:46:39;;;;;;;3.53;0.52;;;;;;;7.27;100.00;101121.19;4971437;28;20493;-86
2024/01/06 04:49:16;;;;;;;1.85;0.50;;;;;;;7.27;100.00;101121.19;4980191;28;20050;-90
2024/01/06 04:51:45;;;;;;;2.53;0.70;;;;;;;7.25;100.00;101067.88;4974091;28;20133;-86
2024/01/06 04:54:14;;;;;;;3.80;0.80;;;;;;;7.26;100.00;101073.13;4968848;28;20109;-86
2024/01/06 04:56:45;;;;;;;3.33;0.60;;;;;;;7.21;100.00;101042.81;4975517;28;20047;-86
2024/01/06 04:59:23;;;;;;;1.98;0.75;;;;;;;7.23;100.00;101078.09;4973713;28;20054;-86
2024/01/06 05:02:00;;;;;;;2.45;0.40;;;;;;;7.20;100.00;101093.41;4976444;28;20055;-88
2024/01/06 05:04:40;;;;;;;1.13;0.45;;;;;;;7.12;100.00;101082.75;4972704;28;20061;-85
2024/01/06 05:07:10;;;;;;;5.55;0.77;;;;;;;7.17;100.00;101080.41;4974246;28;20503;-87
2024/01/06 05:30:39;;;;;;;2.30;0.60;;;;;;;7.30;100.00;101068.97;6023006;22;6266810;-85
2024/01/06 05:33:12;;;;;;;5.57;0.68;;;;;;;7.42;100.00;101064.44;6224573;23;20432;-85
2024/01/06 05:35:41;;;;;;;4.10;0.90;;;;;;;7.46;100.00;101056.00;6224424;23;20047;-86
2024/01/06 05:38:17;;;;;;;3.65;0.57;;;;;;;7.51;100.00;101045.94;6224009;23;20020;-87
2024/01/06 05:40:50;;;;;;;1.25;0.50;;;;;;;7.58;100.00;101032.53;6224409;23;20044;-86
2024/01/06 05:43:23;;;;;;;2.83;0.77;;;;;;;7.57;100.00;101038.50;6227419;23;20017;-86
2024/01/06 05:46:00;;;;;;;;;;;;;;;7.59;100.00;101059.19;6222987;23;20170;-84
2024/01/06 05:48:28;;;;;;;3.40;0.70;;;;;;;7.57;100.00;101053.06;6222521;23;19922;-84
2024/01/06 05:50:57;;;;;;;11.43;1.38;;;;;;;7.54;100.00;101046.09;6223716;23;20016;-83
2024/01/06 05:53:28;;;;;;;3.33;1.02;;;;;;;7.49;100.00;101040.72;6217440;23;20025;-85
2024/01/06 05:56:05;;;;;;;3.67;0.70;;;;;;;7.50;100.00;101023.59;6219946;23;20021;-84
2024/01/06 05:58:35;;;;;;;2.50;0.57;;;;;;;7.45;100.00;101025.06;6221971;23;20020;-84
2024/01/06 06:01:07;;;;;;;3.30;0.75;;;;;;;7.50;100.00;101021.00;6222475;23;20051;-84
2024/01/06 06:03:44;;;;;;;1.23;0.77;;;;;;;7.51;100.00;101008.22;6223354;23;20502;-84
2024/01/06 06:06:12;;;;;;;0.90;0.57;;;;;;;7.50;100.00;101000.41;6222268;23;20016;-83
2024/01/06 06:08:43;;;;;;;4.50;1.52;;;;;;;7.55;100.00;100989.50;6221487;23;20460;-83
2024/01/06 06:11:12;;;;;;;2.05;0.60;;;;;;;7.54;100.00;100976.56;6221632;23;20016;-85
2024/01/06 06:13:45;;;;;;;3.20;0.75;;;;;;;7.52;100.00;100975.63;6222123;23;20021;-84
2024/01/06 06:16:16;;;;;;;3.17;0.50;;;;;;;7.46;100.00;100957.31;6221663;23;20020;-84
2024/01/06 06:18:45;;;;;;;2.83;0.63;;;;;;;7.42;100.00;100951.16;6221931;23;20095;-84
2024/01/06 06:21:16;;;;;;;3.63;0.65;;;;;;;7.48;100.00;100946.25;6225809;23;20099;-84
2024/01/06 06:23:48;;;;;;;2.67;0.50;;;;;;;7.48;100.00;100935.09;6216177;23;20028;-84
2024/01/06 06:26:17;;;;;;;3.03;0.50;;;;;;;7.49;100.00;100926.53;6215637;23;20021;-85
2024/01/06 06:28:46;;;;;;;2.17;0.77;;;;;;;7.43;100.00;100910.84;6216328;23;20023;-85
2024/01/06 06:31:19;;;;;;;1.02;0.35;;;;;;;7.35;100.00;100913.06;6217945;23;20027;-84
2024/01/06 06:33:51;;;;;;;1.63;0.40;;;;;;;7.38;100.00;100904.63;6218858;23;20020;-85
2024/01/06 06:36:20;;;;;;;3.00;0.30;;;;;;;7.37;100.00;100889.97;6216761;23;20451;-83
2024/01/06 06:38:49;;;;;;;1.63;0.90;;;;;;;7.32;100.00;100888.06;6217232;23;20029;-85
2024/01/06 06:41:19;;;;;;;4.93;0.60;;;;;;;7.39;100.00;100872.88;6214786;23;20405;-84
2024/01/06 06:43:51;;;;;;;0.50;0.28;;;;;;;7.36;100.00;100878.78;6218189;23;20035;-86
2024/01/06 06:46:23;;;;;;;2.67;0.65;;;;;;;7.30;100.00;100861.38;6216626;23;20021;-85
2024/01/06 06:48:52;;;;;;;3.90;0.88;;;;;;;7.27;100.00;100848.38;6217359;23;20100;-84
2024/01/06 06:51:30;;;;;;;2.33;0.60;;;;;;;7.35;100.00;100864.13;6215899;23;20091;-85
2024/01/06 06:53:59;;;;;;;1.58;0.45;;;;;;;7.32;100.00;100839.16;6216917;23;20070;-84
2024/01/06 06:56:27;;;;;;;2.70;0.40;;;;;;;7.31;100.00;100858.00;6218647;23;20043;-83
2024/01/06 06:58:56;;;;;;;0.60;0.40;;;;;;;7.29;100.00;100845.88;6220875;23;20021;-84
2024/01/06 07:01:34;;;;;;;2.38;0.68;;;;;;;7.32;100.00;100849.44;6216022;23;20096;-83
2024/01/06 07:04:02;;;;;;;3.78;0.82;;;;;;;7.29;100.00;100831.31;6215452;23;20021;-82
2024/01/06 07:06:32;;;;;;;1.63;0.52;;;;;;;7.18;100.00;100832.53;6216319;23;20021;-84
2024/01/06 07:09:01;;;;;;;2.28;0.40;;;;;;;7.26;100.00;100827.69;6214455;23;20020;-83
2024/01/06 07:11:35;;;;;;;2.28;0.60;;;;;;;7.25;100.00;100807.94;6215398;23;20016;-82
2024/01/06 07:14:04;;;;;;;5.75;1.25;;;;;;;7.24;100.00;100812.22;6215282;23;20019;-83
2024/01/06 07:16:34;;;;;;;5.38;1.20;;;;;;;7.17;100.00;100807.63;6215032;23;20104;-84
2024/01/06 07:19:03;;;;;;;5.55;1.15;;;;;;;7.21;100.00;100790.59;6214576;23;20020;-84
2024/01/06 07:21:40;;;;;;;2.22;0.80;;;;;;;7.07;100.00;100778.00;6215068;23;20024;-84
2024/01/06 07:24:09;;;;;;;4.47;0.73;;;;;;;7.14;100.00;100762.00;6213823;23;20024;-82
2024/01/06 07:26:38;;;;;;;3.13;0.85;;;;;;;7.14;100.00;100753.44;6214870;23;20024;-82
2024/01/06 07:29:07;;;;;;;6.45;1.00;;;;;;;7.16;100.00;100746.66;6214415;23;20020;-82
2024/01/06 07:31:41;;;;;;;0.70;0.47;;;;;;;7.14;100.00;100732.84;6214283;23;20293;-82
2024/01/06 07:34:11;;;;;;;0.47;0.30;;;;;;;7.12;100.00;100745.66;6214056;23;20108;-82
2024/01/06 07:36:40;;;;;;;2.53;0.77;;;;;;;7.17;100.00;100743.28;6218238;23;20017;-83
2024/01/06 07:39:09;;;;;;;3.72;0.60;;;;;;;7.17;100.00;100732.09;6213500;23;20024;-82
2024/01/06 07:41:37;;;;;;;1.85;0.90;;;;;;;7.16;100.00;100727.78;6214125;23;20056;-81
2024/01/06 07:44:06;;;;;;;5.13;1.00;;;;;;;7.20;100.00;100727.97;6214308;23;20095;-81
2024/01/06 07:46:36;;;;;;;6.65;0.85;;;;;;;7.17;100.00;100717.56;6213857;23;20027;-82
2024/01/06 07:49:07;;;;;;;2.85;0.77;;;;;;;7.22;100.00;100731.50;6213521;23;20028;-82
2024/01/06 07:51:38;;;;;;;3.17;0.88;;;;;;;7.22;100.00;100730.63;6214565;23;20032;-82
2024/01/06 07:54:08;;;;;;;1.33;0.55;;;;;;;7.26;100.00;100717.03;6213208;23;20452;-83
2024/01/06 07:56:37;;;;;;;4.63;0.98;;;;;;;7.28;100.00;100708.59;6214506;23;20025;-81
2024/01/06 07:59:06;;;;;;;8.70;1.20;;;;;;;7.26;100.00;100712.78;6214707;23;20021;-84
2024/01/06 08:01:44;;;;;;;6.68;0.88;;;;;;;7.26;100.00;100725.66;6213552;23;20088;-84
2024/01/06 08:04:15;;;;;;;2.58;0.70;;;;;;;7.31;100.00;100708.72;6214583;23;20079;-84
2024/01/06 08:06:44;;;;;;;1.15;0.73;;;;;;;7.31;100.00;100705.25;6213387;23;20056;-84
2024/01/06 08:09:13;;;;;;;1.33;0.80;;;;;;;7.24;100.00;100683.53;6214065;23;20040;-84
2024/01/06 08:11:48;;;;;;;7.93;1.20;;;;;;;7.20;100.00;100684.22;6212854;23;20012;-83
2024/01/06 08:14:17;;;;;;;2.88;0.50;;;;;;;7.21;100.00;100691.09;6217691;23;20019;-83
2024/01/06 08:16:46;;;;;;;3.85;0.85;;;;;;;7.16;100.00;100679.75;6213031;23;20103;-83
2024/01/06 08:19:17;;;;;;;2.65;0.77;;;;;;;7.20;100.00;100686.78;6213204;23;20017;-84
2024/01/06 08:21:51;;;;;;;4.60;1.08;;;;;;;7.16;100.00;100673.72;6214178;23;20027;-83
2024/01/06 08:24:20;;;;;;;3.72;0.57;;;;;;;7.16;100.00;100668.59;6213666;23;20020;-83
2024/01/06 08:26:49;;;;;;;2.72;0.65;;;;;;;7.10;100.00;100658.91;6213615;23;20025;-83
2024/01/06 08:29:19;;;;;;;2.97;0.95;;;;;;;7.09;100.00;100663.16;6214082;23;20023;-84
2024/01/06 08:31:55;;;;;;;10.68;1.30;;;;;;;7.09;100.00;100658.03;6213266;23;20389;-83
2024/01/06 08:34:26;;;;;;;2.70;1.00;;;;;;;7.08;100.00;100652.84;6213357;23;20032;-83
2024/01/06 08:36:55;;;;;;;2.83;0.75;;;;;;;6.97;100.00;100646.34;6214149;23;20017;-82
2024/01/06 08:39:24;;;;;;;6.93;0.85;;;;;;;6.96;100.00;100642.00;6213780;23;20100;-83
2024/01/06 08:41:55;;;;;;;5.82;1.35;;;;;;;6.92;100.00;100657.31;6213285;23;20048;-84
2024/01/06 08:44:25;;;;;;;1.15;0.75;;;;;;;6.90;100.00;100648.66;6213420;23;20028;-84
2024/01/06 08:46:54;;;;;;;3.75;0.85;;;;;;;6.83;100.00;100638.94;6212878;23;20099;-85
2024/01/06 08:49:36;;;;;;;;;;;;;;;;;;;;;
2024/01/06 08:52:05;;;;;;;;;;;;;;;6.87;100.00;100658.84;6218683;23;20304;-84
2024/01/06 08:54:34;;;;;;;7.88;1.45;;;;;;;6.71;100.00;100654.72;6213752;23;19991;-83
2024/01/06 08:57:03;;;;;;;6.25;1.27;;;;;;;6.68;100.00;100639.13;6213016;23;20076;-83
2024/01/06 08:59:38;;;;;;;0.20;0.20;;;;;;;6.72;100.00;100633.31;6213588;23;20024;-84
2024/01/06 09:02:08;;;;;;;6.15;1.05;;;;;;;6.76;100.00;100616.34;6212443;23;20127;-84
2024/01/06 09:04:39;;;;;;;5.22;0.57;;;;;;;6.85;100.00;100611.59;6213328;23;20016;-85
2024/01/06 09:07:16;;;;;;;6.53;0.98;;;;;;;6.81;100.00;100607.13;6213750;23;20032;-84
2024/01/06 09:09:46;;;;;;;10.60;0.85;;;;;;;6.77;100.00;100600.09;6212212;23;20504;-83
2024/01/06 09:12:14;;;;;;;1.42;0.57;;;;;;;6.78;100.00;100593.25;6213701;23;20017;-84
2024/01/06 09:14:43;;;;;;;1.85;0.50;;;;;;;6.78;100.00;100578.72;6212727;23;20465;-83
2024/01/06 09:17:21;;;;;;;3.28;0.73;;;;;;;6.73;100.00;100572.47;6214336;23;20024;-84
2024/01/06 09:19:55;;;;;;;3.38;0.45;;;;;;;6.68;100.00;100571.41;6211803;23;20043;-85
2024/01/06 09:22:25;;;;;;;1.52;0.38;;;;;;;6.53;100.00;100565.63;6212503;23;20122;-85
2024/01/06 09:24:59;;;;;;;0.10;0.10;;;;;;;6.56;100.00;100565.78;6212519;23;20017;-83
2024/01/06 09:27:28;;;;;;;1.10;0.03;;;;;;;6.55;100.00;100556.28;6213141;23;20453;-84
2024/01/06 09:29:57;;;;;;;1.85;0.75;;;;;;;6.49;100.00;100550.06;6215613;23;20020;-86
2024/01/06 09:32:26;;;;;;;1.80;0.20;;;;;;;6.46;100.00;100539.69;6213053;23;20025;-86
2024/01/06 09:34:58;;;;;;;0.55;0.28;;;;;;;6.44;100.00;100535.28;6212733;23;20012;-86
2024/01/06 09:37:28;;;;;;;2.72;0.40;;;;;;;6.43;100.00;100529.25;6213415;23;20123;-85
2024/01/06 09:39:57;;;;;;;1.08;0.57;;;;;;;6.41;100.00;100509.44;6211827;23;20023;-86
2024/01/06 09:42:26;;;;;;;3.28;0.55;;;;;;;6.45;100.00;100511.31;6212816;23;20448;-86
2024/01/06 09:44:55;;;;;;;5.10;0.60;;;;;;;6.41;100.00;100497.47;6212297;23;20021;-84
2024/01/06 09:47:30;;;;;;;3.92;1.20;;;;;;;6.40;100.00;100492.28;6213276;23;20028;-85
2024/01/06 09:50:05;;;;;;;0.80;0.60;;;;;;;6.32;100.00;100493.63;6213681;23;20017;-84
2024/01/06 09:52:40;;;;;;;0.68;0.32;;;;;;;6.21;100.00;100478.66;6212120;23;20347;-85
2024/01/06 09:55:13;;;;;;;0.50;0.20;;;;;;;6.19;100.00;100466.56;6212356;23;20103;-84
2024/01/06 09:57:43;;;;;;;3.10;0.60;;;;;;;6.07;100.00;100456.66;6211507;23;20099;-87
2024/01/06 10:00:13;;;;;;;1.00;0.45;;;;;;;6.09;100.00;100455.00;6215032;23;20445;-86
2024/01/06 10:02:51;;;;;;;1.45;0.47;;;;;;;6.10;100.00;100435.34;6213596;23;20017;-85
2024/01/06 10:05:22;;;;;;;0.82;0.47;;;;;;;6.13;100.00;100438.91;6213870;23;20021;-85
2024/01/06 10:07:53;;;;;;;3.28;0.28;;;;;;;5.99;100.00;100432.31;6216419;23;20021;-86
2024/01/06 10:10:29;;;;;;;2.00;0.15;;;;;;;5.92;100.00;100415.72;6213542;23;20064;-86
2024/01/06 10:12:58;;;;;;;0.93;0.65;;;;;;;5.91;100.00;100408.84;6208298;23;20246;-86
2024/01/06 10:15:27;;;;;;;0.17;0.13;;;;;;;5.86;100.00;100398.38;6214253;23;20023;-85
2024/01/06 10:17:57;;;;;;;3.38;0.40;;;;;;;5.84;100.00;100396.53;6213141;23;20103;-84
2024/01/06 10:20:36;;;;;;;0.20;0.05;;;;;;;5.77;100.00;100368.84;6214040;23;20070;-84
2024/01/06 10:23:17;;;;;;;2.58;0.30;;;;;;;5.76;100.00;100356.84;6214492;23;20016;-84
2024/01/06 10:25:55;;;;;;;6.70;0.40;;;;;;;5.79;100.00;100357.81;6215292;23;20108;-83
2024/01/06 10:28:24;;;;;;;0.63;0.10;;;;;;;5.70;100.00;100341.16;6214618;23;20028;-83
2024/01/06 10:30:55;;;;;;;0.73;0.30;;;;;;;5.71;100.00;100348.94;6214518;23;20020;-85
2024/01/06 10:33:31;;;;;;;1.40;0.13;;;;;;;5.69;100.00;100344.56;6213990;23;20460;-84
2024/01/06 10:36:03;;;;;;;1.90;0.63;;;;;;;5.70;100.00;100346.28;6213983;23;20023;-85
2024/01/06 10:38:32;;;;;;;1.52;0.30;;;;;;;5.74;100.00;100340.50;6214225;23;20099;-83
2024/01/06 10:41:12;;;;;;;;;;;;;;;;;;;;;
2024/01/06 10:43:43;;;;;;;0.95;0.28;;;;;;;5.74;100.00;100354.19;6217265;23;20017;-82
2024/01/06 10:46:14;;;;;;;0.88;0.22;;;;;;;5.75;100.00;100339.66;6216023;23;20024;-82
2024/01/06 10:48:51;;;;;;;0.32;0.22;;;;;;;5.73;100.00;100354.16;6214999;23;20024;-83
2024/01/06 10:51:23;;;;;;;0.47;0.10;;;;;;;5.67;100.00;100349.63;6212362;23;20067;-83
2024/01/06 10:53:52;;;;;;;1.23;0.35;;;;;;;5.73;100.00;100359.28;6215104;23;20326;-85
2024/01/06 10:56:23;;;;;;;0.35;0.10;;;;;;;5.67;100.00;100353.06;6214666;23;20468;-83
2024/01/06 10:58:59;;;;;;;2.53;0.20;;;;;;;5.68;100.00;100353.97;6214847;23;20016;-84
2024/01/06 11:01:29;;;;;;;0.10;0.00;;;;;;;5.65;100.00;100338.41;6213659;23;20384;-83
2024/01/06 11:03:59;;;;;;;1.02;0.45;;;;;;;5.65;100.00;100349.53;6213136;23;20096;-84
2024/01/06 11:06:41;;;;;;;2.75;0.60;;;;;;;5.60;100.00;100347.59;6213143;23;20016;-83
2024/01/06 11:09:16;;;;;;;0.65;0.30;;;;;;;5.56;100.00;100343.16;6214606;23;20036;-83
2024/01/06 11:11:48;;;;;;;0.38;0.10;;;;;;;5.52;100.00;100331.88;6215303;23;20029;-83
2024/01/06 11:14:25;;;;;;;0.20;0.10;;;;;;;5.61;100.00;100347.69;6213164;23;20020;-81
2024/01/06 11:16:55;;;;;;;2.10;0.43;;;;;;;5.58;100.00;100332.13;6214039;23;20038;-83
2024/01/06 11:19:45;;;;;;;1.45;0.20;;;;;;;5.54;100.00;100330.22;6214724;23;20017;-83
2024/01/06 11:22:39;;;;;;;0.47;0.28;;;;;;;5.56;100.00;100338.88;6208785;23;20461;-84
2024/01/06 11:25:10;;;;;;;0.88;0.08;;;;;;;5.56;100.00;100336.31;6214779;23;20028;-84
2024/01/06 11:27:42;;;;;;;2.38;0.40;;;;;;;5.51;100.00;100314.72;6213311;23;20083;-84
2024/01/06 11:30:22;;;;;;;0.10;0.03;;;;;;;5.44;100.00;100305.88;6214403;23;20066;-83
2024/01/06 11:32:53;;;;;;;0.20;0.17;;;;;;;5.44;100.00;100310.13;6214156;23;20100;-83
2024/01/06 11:35:33;;;;;;;0.50;0.30;;;;;;;5.40;100.00;100310.81;6214992;23;20448;-82
2024/01/06 11:38:05;;;;;;;0.98;0.50;;;;;;;5.41;100.00;100312.59;6214166;23;20025;-83
2024/01/06 11:40:36;;;;;;;4.37;0.30;;;;;;;5.42;100.00;100324.59;6214079;23;20031;-82
2024/01/06 11:43:11;;;;;;;1.15;0.30;;;;;;;5.48;100.00;100324.00;6213979;23;20391;-82
2024/01/06 11:45:43;;;;;;;0.00;0.00;;;;;;;5.47;100.00;100315.38;6213719;23;20021;-84
2024/01/06 11:48:13;;;;;;;1.03;0.40;;;;;;;5.43;100.00;100303.28;6214200;23;20020;-83
2024/01/06 11:50:43;;;;;;;0.88;0.57;;;;;;;5.38;100.00;100307.31;6214464;23;20234;-83
2024/01/06 11:53:17;;;;;;;0.47;0.30;;;;;;;5.34;100.00;100290.91;6212892;23;20013;-82
2024/01/06 11:55:46;;;;;;;0.32;0.30;;;;;;;5.38;100.00;100282.53;6213359;23;20067;-82
2024/01/06 11:58:14;;;;;;;0.38;0.20;;;;;;;5.37;100.00;100274.78;6213818;23;20055;-83
2024/01/06 12:00:43;;;;;;;0.43;0.10;;;;;;;5.29;100.00;100281.25;6218028;23;20120;-81
2024/01/06 12:03:17;;;;;;;0.30;0.20;;;;;;;5.32;100.00;100282.28;6213384;23;20019;-82
2024/01/06 12:05:46;;;;;;;0.20;0.10;;;;;;;5.33;100.00;100288.28;6213949;23;20468;-82
2024/01/06 12:08:21;;;;;;;0.17;0.17;;;;;;;5.40;100.00;100285.16;6214524;23;20024;-80
2024/01/06 12:10:52;;;;;;;0.25;0.10;;;;;;;5.45;100.00;100282.00;6213095;23;20025;-82
2024/01/06 12:13:21;;;;;;;1.38;0.10;;;;;;;5.51;100.00;100294.19;6214427;23;20021;-81
2024/01/06 12:15:51;;;;;;;0.47;0.20;;;;;;;5.49;100.00;100295.81;6213567;23;20100;-81
2024/01/06 12:18:20;;;;;;;0.70;0.17;;;;;;;5.54;100.00;100299.44;6213969;23;20048;-82
2024/01/06 12:20:52;;;;;;;0.40;0.10;;;;;;;5.50;100.00;100292.44;6213484;23;20100;-82
2024/01/06 12:23:29;;;;;;;1.25;0.10;;;;;;;5.51;100.00;100281.34;6214327;23;20020;-81
2024/01/06 12:25:58;;;;;;;0.00;0.00;;;;;;;5.47;100.00;100279.47;6214256;23;20102;-82
2024/01/06 12:28:39;;;;;;;0.00;0.00;;;;;;;5.48;100.00;100265.84;6213356;23;20091;-83
2024/01/06 12:31:12;;;;;;;0.25;0.13;;;;;;;5.47;100.00;100266.63;6214110;23;20055;-83
2024/01/06 12:33:40;;;;;;;;;;;;;;;5.50;100.00;100264.22;6213128;23;20095;-83
2024/01/06 12:36:20;;;;;;;;;;;;;;;;;;;;;
2024/01/06 12:38:55;;;;;;;0.35;0.15;;;;;;;5.46;100.00;100260.63;6217730;23;20095;-83
2024/01/06 12:41:25;;;;;;;0.45;0.10;;;;;;;5.49;100.00;100275.28;6212989;23;20028;-83
2024/01/06 12:43:59;;;;;;;0.05;0.05;;;;;;;5.50;100.00;100277.06;6213967;23;20020;-82
2024/01/06 12:46:28;;;;;;;1.35;0.20;;;;;;;5.52;100.00;100278.00;6212492;23;20017;-81
2024/01/06 12:48:57;;;;;;;0.05;0.00;;;;;;;5.43;100.00;100255.38;6213990;23;20027;-82
2024/01/06 12:51:26;;;;;;;0.17;0.10;;;;;;;5.44;100.00;100266.53;6213209;23;20091;-81
2024/01/06 12:54:05;;;;;;;0.00;0.00;;;;;;;5.34;100.00;100270.41;6213619;23;20103;-83
2024/01/06 12:56:34;;;;;;;0.28;0.10;;;;;;;5.34;100.00;100274.66;6212759;23;20487;-83
2024/01/06 12:59:03;;;;;;;1.23;0.13;;;;;;;5.34;100.00;100285.78;6213646;23;20051;-82
2024/01/06 13:01:37;;;;;;;0.65;0.10;;;;;;;5.38;100.00;100281.66;6213396;23;20544;-82
2024/01/06 13:04:06;;;;;;;0.00;0.00;;;;;;;5.44;100.00;100287.91;6213051;23;20047;-83
2024/01/06 13:06:35;;;;;;;0.10;0.10;;;;;;;5.52;100.00;100289.94;6213986;23;20028;-82
2024/01/06 13:09:07;;;;;;;2.00;0.20;;;;;;;5.55;100.00;100293.50;6211909;23;20451;-83
2024/01/06 13:11:47;;;;;;;0.00;0.00;;;;;;;5.61;100.00;100300.56;6214144;23;20032;-82
2024/01/06 13:14:16;;;;;;;0.85;0.40;;;;;;;5.64;100.00;100301.59;6213060;23;20096;-82
2024/01/06 13:16:45;;;;;;;0.10;0.10;;;;;;;5.63;100.00;100297.25;6216337;23;20330;-83
2024/01/06 13:19:23;;;;;;;0.30;0.15;;;;;;;5.70;100.00;100306.09;6212285;23;20060;-83
2024/01/06 13:21:52;;;;;;;0.60;0.10;;;;;;;5.71;100.00;100299.28;6212208;23;20020;-82
2024/01/06 13:24:25;;;;;;;0.17;0.10;;;;;;;5.71;100.00;100302.75;6213059;23;20027;-83
2024/01/06 13:26:54;;;;;;;0.93;0.30;;;;;;;5.75;100.00;100290.88;6213495;23;20063;-82
2024/01/06 13:29:24;;;;;;;0.10;0.00;;;;;;;5.82;100.00;100296.34;6213935;23;20020;-82
2024/01/06 13:31:54;;;;;;;0.03;0.00;;;;;;;5.79;100.00;100293.63;6212010;23;20029;-82